Harmon, Illinois
Current Conditions -  °F | °C
As of 3:55 PM on Wednesday 26 Nov 2014 (Local Time) from KSQI Reporting Station
Overcast Overcast  
Wind Chill: -9°   Ceiling: 1900
Heat Index: -3°   Visibility: 9mi
Dew Point: -6°   Wind: 13mph
Humidity: 80%   Direction: 70°ENE
Pressure: 30.11"   Gusts: NA
Location:  41.72°N, 89.55°W
Report Text: KSQI 262155Z 07011KT 9SM OVC019 M03/M06 A3011 RMK AO1
Loading
Personal Weather Stations






























Interactive Weather Map New forecast layout! Learn more

10-Day Weather Forecast

Advertisements
Track Severe Weather on mobile